createdAt,value
2023-02-27T00:00:17.316Z,100236.98
2023-02-27T00:02:47.845Z,100235.88
2023-02-27T00:05:16.370Z,100239.73
2023-02-27T00:07:44.605Z,100236.39
2023-02-27T00:10:17.606Z,100231.48
2023-02-27T00:12:45.912Z,100230.43
2023-02-27T00:15:15.940Z,100227.02
2023-02-27T00:17:47.287Z,100219.13
2023-02-27T00:20:16.346Z,100216.68
2023-02-27T00:22:46.396Z,100212.10
2023-02-27T00:25:14.646Z,100211.83
2023-02-27T00:27:43.281Z,100216.54
2023-02-27T00:30:13.445Z,100227.58
2023-02-27T00:32:44.206Z,100228.97
2023-02-27T00:35:13.145Z,100227.87
2023-02-27T00:37:42.083Z,100219.86
2023-02-27T00:40:11.456Z,100222.27
2023-02-27T00:42:39.839Z,100225.73
2023-02-27T00:45:09.478Z,100230.67
2023-02-27T00:47:38.219Z,100238.66
2023-02-27T00:50:06.840Z,100244.52
2023-02-27T00:52:35.181Z,100246.40
2023-02-27T00:55:03.193Z,100251.28
2023-02-27T00:57:31.369Z,100253.96
2023-02-27T00:59:59.854Z,100250.83
2023-02-27T01:02:28.460Z,100247.89
2023-02-27T01:04:57.421Z,100248.62
2023-02-27T01:07:25.516Z,100245.88
2023-02-27T01:09:54.731Z,100247.29
2023-02-27T01:12:22.860Z,100255.45
2023-02-27T01:14:51.496Z,100262.08
2023-02-27T01:17:20.507Z,100266.30
2023-02-27T01:19:48.775Z,100268.77
2023-02-27T01:22:17.035Z,100267.11
2023-02-27T01:24:47.483Z,100268.45
2023-02-27T01:27:15.699Z,100267.61
2023-02-27T01:29:45.160Z,100268.08
2023-02-27T01:32:13.175Z,100261.42
2023-02-27T01:34:41.535Z,100265.39
2023-02-27T01:37:09.519Z,100263.94
2023-02-27T01:39:37.802Z,100269.56
2023-02-27T01:42:18.563Z,100271.17
2023-02-27T01:45:12.320Z,100270.19
2023-02-27T01:47:47.843Z,100274.21
2023-02-27T01:50:16.575Z,100275.39
2023-02-27T01:52:45.045Z,100275.30
2023-02-27T01:55:14.154Z,100277.34
2023-02-27T01:57:43.451Z,100278.08
2023-02-27T02:00:12.655Z,100283.95
2023-02-27T02:02:44.502Z,100295.13
2023-02-27T02:05:15.369Z,100302.00
2023-02-27T02:07:43.894Z,100304.58
2023-02-27T02:10:12.811Z,100303.30
2023-02-27T02:12:40.876Z,100301.77
2023-02-27T02:15:13.494Z,100299.60
2023-02-27T02:18:12.171Z,100300.66
2023-02-27T02:21:12.968Z,100297.38
2023-02-27T02:23:56.515Z,100292.88
2023-02-27T02:26:33.612Z,100293.41
2023-02-27T02:29:08.398Z,100298.95
2023-02-27T02:31:59.226Z,100300.27
2023-02-27T02:34:52.036Z,100301.26
2023-02-27T02:37:35.129Z,100298.09
2023-02-27T02:40:36.749Z,100291.02
2023-02-27T02:43:25.014Z,100292.95
2023-02-27T02:46:01.549Z,100291.88
2023-02-27T02:48:33.204Z,100293.32
2023-02-27T02:51:14.700Z,100294.63
2023-02-27T02:53:51.782Z,100287.48
2023-02-27T02:56:27.169Z,100292.02
2023-02-27T02:59:11.075Z,100289.73
2023-02-27T03:01:43.386Z,100289.66
2023-02-27T03:04:30.625Z,100299.89
2023-02-27T03:07:04.711Z,100307.25
2023-02-27T03:09:36.582Z,100310.19
2023-02-27T03:12:07.601Z,100308.52
2023-02-27T03:14:43.447Z,100314.09
2023-02-27T03:17:39.428Z,100311.48
2023-02-27T03:20:09.857Z,100317.69
2023-02-27T03:22:42.783Z,100316.30
2023-02-27T03:25:11.807Z,100323.91
2023-02-27T03:27:51.356Z,100330.63
2023-02-27T03:30:31.094Z,100337.56
2023-02-27T03:33:08.377Z,100344.64
2023-02-27T03:36:12.284Z,100353.27
2023-02-27T03:38:46.288Z,100357.77
2023-02-27T03:41:21.112Z,100361.80
2023-02-27T03:44:05.397Z,100367.34
2023-02-27T03:46:34.978Z,100366.20
2023-02-27T03:49:03.405Z,100365.65
2023-02-27T03:51:32.621Z,100369.67
2023-02-27T03:54:14.609Z,100377.73
2023-02-27T03:56:50.657Z,100384.38
2023-02-27T03:59:19.073Z,100388.24
2023-02-27T04:01:50.456Z,100390.66
2023-02-27T04:04:19.129Z,100386.95
2023-02-27T04:07:25.005Z,100390.59
2023-02-27T04:10:04.250Z,100391.35
2023-02-27T04:13:03.380Z,100388.90
2023-02-27T04:16:06.929Z,100385.38
2023-02-27T04:18:50.694Z,100385.80
2023-02-27T04:21:18.754Z,100389.54
2023-02-27T04:23:57.898Z,100386.02
2023-02-27T04:26:32.284Z,100384.59
2023-02-27T04:29:08.116Z,100385.18
2023-02-27T04:31:57.316Z,100385.83
2023-02-27T04:34:39.070Z,100391.20
2023-02-27T04:37:19.134Z,100393.00
2023-02-27T04:40:00.761Z,100396.27
2023-02-27T04:42:38.125Z,100396.27
2023-02-27T04:45:08.615Z,100399.20
2023-02-27T04:47:40.174Z,100404.64
2023-02-27T04:50:14.505Z,100414.42
2023-02-27T04:52:50.367Z,100419.83
2023-02-27T04:55:27.244Z,100422.57
2023-02-27T04:58:17.652Z,100423.91
2023-02-27T05:00:48.139Z,100429.39
2023-02-27T05:03:24.235Z,100431.15
2023-02-27T05:05:53.938Z,100436.84
2023-02-27T05:08:28.424Z,100435.77
2023-02-27T05:11:09.606Z,100447.52
2023-02-27T05:13:50.011Z,100451.17
2023-02-27T05:16:24.038Z,100445.16
2023-02-27T05:18:54.716Z,100441.21
2023-02-27T05:21:34.795Z,100451.16
2023-02-27T05:24:09.812Z,100458.63
2023-02-27T05:27:02.989Z,100459.27
2023-02-27T05:30:19.587Z,100457.36
2023-02-27T05:33:00.367Z,100465.35
2023-02-27T05:35:34.849Z,100472.60
2023-02-27T05:38:08.255Z,100475.38
2023-02-27T05:40:44.456Z,100477.96
2023-02-27T05:43:20.311Z,100476.27
2023-02-27T05:45:50.290Z,100472.52
2023-02-27T05:48:24.957Z,100472.90
2023-02-27T05:50:53.714Z,100481.79
2023-02-27T05:53:22.483Z,100477.30
2023-02-27T05:55:52.820Z,100473.61
2023-02-27T05:58:44.065Z,100477.08
2023-02-27T06:01:12.441Z,100475.04
2023-02-27T06:03:40.755Z,100482.41
2023-02-27T06:06:12.758Z,100487.71
2023-02-27T06:08:40.987Z,100489.40
2023-02-27T06:11:09.170Z,100492.59
2023-02-27T06:13:37.253Z,100494.19
2023-02-27T06:16:05.841Z,100491.06
2023-02-27T06:18:34.152Z,100490.34
2023-02-27T06:21:02.373Z,100486.95
2023-02-27T06:23:34.157Z,100491.23
2023-02-27T06:26:03.249Z,100497.42
2023-02-27T06:28:31.367Z,100497.31
2023-02-27T06:30:59.811Z,100494.05
2023-02-27T06:33:27.906Z,100497.02
2023-02-27T06:35:58.663Z,100492.17
2023-02-27T06:38:27.222Z,100494.81
2023-02-27T06:40:56.730Z,100504.97
2023-02-27T06:43:24.820Z,100510.61
2023-02-27T06:45:56.176Z,100507.69
2023-02-27T06:48:24.456Z,100508.15
2023-02-27T06:50:53.744Z,100518.08
2023-02-27T06:53:23.816Z,100520.33
2023-02-27T06:55:52.008Z,100513.20
2023-02-27T06:58:21.151Z,100518.86
2023-02-27T07:00:49.341Z,100533.16
2023-02-27T07:03:17.458Z,100534.41
2023-02-27T07:05:50.443Z,100529.75
2023-02-27T07:08:18.820Z,100525.77
2023-02-27T07:10:49.201Z,100524.47
2023-02-27T07:13:19.688Z,100524.14
2023-02-27T07:15:49.123Z,100532.29
2023-02-27T07:18:17.321Z,100533.86
2023-02-27T07:20:45.525Z,100532.20
2023-02-27T07:23:13.921Z,100532.86
2023-02-27T07:25:41.943Z,100526.52
2023-02-27T07:28:10.208Z,100529.68
2023-02-27T07:30:38.219Z,100525.30
2023-02-27T07:33:07.329Z,100527.94
2023-02-27T07:35:35.486Z,100531.99
2023-02-27T07:38:03.841Z,100532.75
2023-02-27T07:40:32.317Z,100531.92
2023-02-27T07:43:05.860Z,100532.27
2023-02-27T07:45:34.239Z,100525.40
2023-02-27T07:48:02.405Z,100521.34
2023-02-27T07:50:31.020Z,100520.06
2023-02-27T07:52:59.095Z,100520.30
2023-02-27T07:55:27.307Z,100516.83
2023-02-27T07:57:55.517Z,100515.23
2023-02-27T08:00:23.801Z,100526.32
2023-02-27T08:02:51.966Z,100528.65
2023-02-27T08:05:20.060Z,100532.27
2023-02-27T08:07:48.774Z,100536.17
2023-02-27T08:10:19.450Z,100537.61
2023-02-27T08:12:48.506Z,100539.96
2023-02-27T08:15:17.648Z,100535.55
2023-02-27T08:17:46.838Z,100542.77
2023-02-27T08:20:15.085Z,100548.98
2023-02-27T08:22:43.184Z,100543.42
2023-02-27T08:25:11.408Z,100536.92
2023-02-27T08:27:39.552Z,100535.01
2023-02-27T08:30:09.339Z,100539.48
2023-02-27T08:32:38.725Z,100536.38
2023-02-27T08:35:07.128Z,100536.35
2023-02-27T08:37:35.725Z,100542.15
2023-02-27T08:40:06.932Z,100552.06
2023-02-27T08:42:35.091Z,100561.92
2023-02-27T08:45:05.236Z,100571.65
2023-02-27T08:47:33.777Z,100574.13
2023-02-27T08:50:02.286Z,100576.23
2023-02-27T08:52:30.447Z,100574.31
2023-02-27T08:54:58.655Z,100576.50
2023-02-27T08:57:27.252Z,100583.12
2023-02-27T08:59:55.311Z,100581.81
2023-02-27T09:02:26.120Z,100579.02
2023-02-27T09:04:54.319Z,100582.36
2023-02-27T09:07:22.400Z,100584.45
2023-02-27T09:09:50.807Z,100576.65
2023-02-27T09:12:21.518Z,100566.85
2023-02-27T09:14:50.093Z,100563.70
2023-02-27T09:17:21.194Z,100569.86
2023-02-27T09:19:53.852Z,100585.77
2023-02-27T09:22:23.214Z,100588.44
2023-02-27T09:24:52.272Z,100587.20
2023-02-27T09:27:20.310Z,100588.57
2023-02-27T09:29:49.090Z,100588.96
2023-02-27T09:32:17.362Z,100591.53
2023-02-27T09:34:45.732Z,100596.96
2023-02-27T09:37:13.995Z,100599.63
2023-02-27T09:39:44.582Z,100608.13
2023-02-27T09:42:21.300Z,100607.00
2023-02-27T09:44:51.019Z,100612.48
2023-02-27T09:47:26.808Z,100618.41
2023-02-27T09:49:59.647Z,100622.61
2023-02-27T09:52:28.660Z,100619.81
2023-02-27T09:54:56.832Z,100617.30
2023-02-27T09:57:32.050Z,100616.92
2023-02-27T10:00:02.123Z,100622.61
2023-02-27T10:02:56.215Z,100620.05
2023-02-27T10:05:42.556Z,100619.30
2023-02-27T10:09:28.423Z,100619.59
2023-02-27T10:12:27.282Z,100614.81
2023-02-27T10:15:03.227Z,100607.28
2023-02-27T10:17:58.103Z,100600.17
2023-02-27T10:20:32.482Z,100591.60
2023-02-27T10:23:03.570Z,100586.48
2023-02-27T10:25:33.865Z,100588.73
2023-02-27T10:28:11.784Z,100582.63
2023-02-27T10:30:40.150Z,100585.84
2023-02-27T10:33:22.962Z,100585.23
2023-02-27T10:35:53.664Z,100582.06
2023-02-27T10:38:33.728Z,100582.02
2023-02-27T10:41:02.537Z,100585.61
2023-02-27T10:43:31.060Z,100585.23
2023-02-27T10:46:02.930Z,100585.22
2023-02-27T10:48:33.046Z,100582.91
2023-02-27T10:51:23.085Z,100579.39
2023-02-27T10:53:54.355Z,100582.34
2023-02-27T10:56:25.865Z,100581.31
2023-02-27T10:59:07.924Z,100579.39
2023-02-27T11:01:47.786Z,100580.83
2023-02-27T11:04:24.203Z,100587.15
2023-02-27T11:06:53.449Z,100596.46
2023-02-27T11:09:26.773Z,100602.62
2023-02-27T11:11:54.942Z,100612.58
2023-02-27T11:14:32.440Z,100617.61
2023-02-27T11:17:02.100Z,100626.51
2023-02-27T11:19:34.764Z,100628.33
2023-02-27T11:22:03.037Z,100627.11
2023-02-27T11:24:31.244Z,100632.11
2023-02-27T11:27:03.804Z,100633.23
2023-02-27T11:29:33.816Z,100636.30
2023-02-27T11:32:10.305Z,100633.78
2023-02-27T11:34:47.668Z,100630.89
2023-02-27T11:37:32.645Z,100630.08
2023-02-27T11:40:06.721Z,100632.58
2023-02-27T11:42:35.954Z,100635.84
2023-02-27T11:46:04.508Z,100633.80
2023-02-27T11:48:46.907Z,100634.42
2023-02-27T11:51:42.971Z,100635.88
2023-02-27T11:54:15.907Z,100631.61
2023-02-27T11:56:47.568Z,100627.55
2023-02-27T11:59:23.157Z,100632.34
2023-02-27T12:01:55.801Z,100627.10
2023-02-27T12:04:33.927Z,100634.59
2023-02-27T12:07:10.016Z,100639.30
2023-02-27T12:13:43.784Z,100635.80
2023-02-27T12:16:32.268Z,100636.75
2023-02-27T12:19:23.994Z,100638.05
2023-02-27T12:22:17.580Z,100638.31
2023-02-27T12:24:55.990Z,100644.08
2023-02-27T12:27:26.259Z,100638.67
2023-02-27T12:30:15.303Z,100645.50
2023-02-27T12:32:45.385Z,100653.19
2023-02-27T12:35:28.992Z,100657.41
2023-02-27T12:37:57.438Z,100662.86
2023-02-27T12:40:41.456Z,100665.48
2023-02-27T12:43:15.769Z,100667.67
2023-02-27T12:45:53.982Z,100672.18
2023-02-27T12:48:31.098Z,100677.42
2023-02-27T12:51:19.882Z,100677.63
2023-02-27T12:54:06.247Z,100679.37
2023-02-27T12:56:56.713Z,100682.93
2023-02-27T12:59:30.928Z,100679.23
2023-02-27T13:02:26.916Z,100675.50
2023-02-27T13:05:04.656Z,100671.29
2023-02-27T13:07:38.878Z,100673.28
2023-02-27T13:10:28.781Z,100674.41
2023-02-27T13:13:22.802Z,100673.40
2023-02-27T13:16:01.668Z,100676.62
2023-02-27T13:18:47.271Z,100674.63
2023-02-27T13:21:36.195Z,100680.80
2023-02-27T13:24:26.910Z,100674.91
2023-02-27T13:26:59.904Z,100673.92
2023-02-27T13:29:55.173Z,100677.96
2023-02-27T13:32:43.738Z,100677.27
2023-02-27T13:35:33.534Z,100667.89
2023-02-27T13:38:44.921Z,100670.31
2023-02-27T13:41:28.007Z,100677.33
2023-02-27T13:43:57.357Z,100680.23
2023-02-27T13:46:30.151Z,100687.03
2023-02-27T13:49:05.894Z,100691.07
2023-02-27T13:51:40.070Z,100694.13
2023-02-27T13:54:09.777Z,100692.13
2023-02-27T13:56:46.782Z,100698.95
2023-02-27T13:59:22.742Z,100695.14
2023-02-27T14:02:01.770Z,100698.12
2023-02-27T14:04:33.032Z,100696.55
2023-02-27T14:07:12.450Z,100693.92
2023-02-27T14:09:42.896Z,100699.02
2023-02-27T14:12:30.917Z,100705.95
2023-02-27T14:19:44.325Z,100704.25
2023-02-27T14:22:12.550Z,100703.08
2023-02-27T14:24:49.677Z,100698.94
2023-02-27T14:27:24.172Z,100697.61
2023-02-27T14:29:54.557Z,100694.95
2023-02-27T14:32:25.725Z,100692.84
2023-02-27T14:34:54.050Z,100693.51
2023-02-27T14:37:23.687Z,100693.80
2023-02-27T14:39:53.089Z,100695.30
2023-02-27T14:42:53.614Z,100692.92
2023-02-27T14:45:24.567Z,100695.52
2023-02-27T14:47:52.846Z,100694.06
2023-02-27T14:50:37.366Z,100697.44
2023-02-27T14:53:07.337Z,100704.15
2023-02-27T14:55:37.507Z,100706.78
2023-02-27T14:58:18.241Z,100711.86
2023-02-27T15:00:58.257Z,100716.78
2023-02-27T15:03:47.498Z,100725.75
2023-02-27T15:06:45.700Z,100732.59
2023-02-27T15:09:42.996Z,100737.65
2023-02-27T15:12:17.406Z,100743.61
2023-02-27T15:15:04.955Z,100749.73
2023-02-27T15:17:40.793Z,100751.79
2023-02-27T15:25:47.092Z,100751.23
2023-02-27T15:28:24.173Z,100753.97
2023-02-27T15:30:53.048Z,100757.96
2023-02-27T15:33:28.992Z,100762.21
2023-02-27T15:35:57.567Z,100763.47
2023-02-27T15:38:34.401Z,100772.14
2023-02-27T15:41:03.263Z,100780.81
2023-02-27T15:43:31.525Z,100788.23
2023-02-27T15:46:00.450Z,100794.59
2023-02-27T15:48:29.930Z,100795.41
2023-02-27T15:50:58.647Z,100805.89
2023-02-27T15:53:28.942Z,100813.33
2023-02-27T15:56:04.402Z,100813.36
2023-02-27T15:59:00.198Z,100812.31
2023-02-27T16:01:32.531Z,100817.80
2023-02-27T16:04:03.417Z,100820.39
2023-02-27T16:06:34.954Z,100827.75
2023-02-27T16:09:23.054Z,100826.71
2023-02-27T16:12:30.117Z,100829.85
2023-02-27T16:15:19.826Z,100834.08
2023-02-27T16:18:15.398Z,100847.08
2023-02-27T16:20:45.335Z,100849.30
2023-02-27T16:23:20.863Z,100850.75
2023-02-27T16:30:34.274Z,100857.95
2023-02-27T16:42:15.365Z,100860.98
2023-02-27T16:44:45.208Z,100861.11
2023-02-27T16:47:13.644Z,100854.49
2023-02-27T16:49:44.437Z,100856.86
2023-02-27T16:52:12.750Z,100860.84
2023-02-27T16:54:40.943Z,100861.83
2023-02-27T16:57:09.844Z,100863.35
2023-02-27T16:59:42.407Z,100870.16
2023-02-27T17:02:13.207Z,100876.44
2023-02-27T17:04:47.014Z,100877.69
2023-02-27T17:07:16.306Z,100881.63
2023-02-27T17:09:45.103Z,100880.70
2023-02-27T17:12:15.755Z,100882.70
2023-02-27T17:14:45.496Z,100882.44
2023-02-27T17:17:13.752Z,100883.89
2023-02-27T17:19:41.859Z,100886.65
2023-02-27T17:22:10.754Z,100891.46
2023-02-27T17:24:40.092Z,100893.20
2023-02-27T17:27:08.672Z,100895.42
2023-02-27T17:29:38.606Z,100900.48
2023-02-27T17:32:07.612Z,100902.69
2023-02-27T17:34:35.997Z,100909.23
2023-02-27T17:37:04.433Z,100904.58
2023-02-27T17:39:33.537Z,100902.30
2023-02-27T17:42:01.662Z,100906.70
2023-02-27T17:44:29.798Z,100908.02
2023-02-27T17:47:00.864Z,100915.55
2023-02-27T17:49:29.071Z,100919.67
2023-02-27T17:52:00.687Z,100919.11
2023-02-27T17:54:28.892Z,100919.41
2023-02-27T17:56:57.629Z,100918.81
2023-02-27T17:59:25.701Z,100924.95
2023-02-27T18:01:55.573Z,100928.09
2023-02-27T18:04:23.987Z,100923.25
2023-02-27T18:06:52.163Z,100918.30
2023-02-27T18:09:21.626Z,100916.05
2023-02-27T18:11:49.997Z,100914.98
2023-02-27T18:14:18.219Z,100916.92
2023-02-27T18:16:46.700Z,100916.76
2023-02-27T18:19:14.714Z,100922.92
2023-02-27T18:21:44.609Z,100925.91
2023-02-27T18:24:15.505Z,100929.42
2023-02-27T18:26:43.645Z,100936.54
2023-02-27T18:29:11.996Z,100945.04
2023-02-27T18:31:42.919Z,100953.63
2023-02-27T18:34:11.287Z,100956.34
2023-02-27T18:36:39.570Z,100958.95
2023-02-27T18:39:07.896Z,100952.38
2023-02-27T18:51:03.246Z,100959.08
2023-02-27T18:53:35.401Z,100958.71
2023-02-27T18:56:04.625Z,100955.70
2023-02-27T18:58:34.764Z,100958.95
2023-02-27T19:01:04.203Z,100965.98
2023-02-27T19:03:32.404Z,100965.77
2023-02-27T19:06:00.616Z,100972.65
2023-02-27T19:08:29.257Z,100979.89
2023-02-27T19:10:58.129Z,100982.20
2023-02-27T19:13:26.260Z,100986.90
2023-02-27T19:15:58.433Z,100990.71
2023-02-27T19:18:26.454Z,100995.80
2023-02-27T19:20:56.411Z,101001.45
2023-02-27T19:23:25.656Z,101005.13
2023-02-27T19:26:00.688Z,101009.13
2023-02-27T19:28:28.767Z,101012.50
2023-02-27T19:30:58.305Z,101025.48
2023-02-27T19:33:26.541Z,101032.26
2023-02-27T19:35:56.872Z,101035.73
2023-02-27T19:38:24.945Z,101037.14
2023-02-27T19:40:53.315Z,101037.16
2023-02-27T19:43:21.718Z,101041.80
2023-02-27T19:45:53.992Z,101041.08
2023-02-27T19:48:22.098Z,101041.64
2023-02-27T19:59:50.790Z,101044.63
2023-02-27T20:02:18.898Z,101049.30
2023-02-27T20:04:47.391Z,101056.70
2023-02-27T20:07:15.358Z,101059.48
2023-02-27T20:09:43.335Z,101062.67
2023-02-27T20:12:11.836Z,101070.61
2023-02-27T20:14:41.078Z,101072.13
2023-02-27T20:17:09.361Z,101076.52
2023-02-27T20:19:37.358Z,101083.42
2023-02-27T20:22:05.579Z,101086.41
2023-02-27T20:24:33.623Z,101090.49
2023-02-27T20:27:04.642Z,101090.28
2023-02-27T20:29:32.723Z,101094.36
2023-02-27T20:32:01.386Z,101095.23
2023-02-27T20:34:30.348Z,101094.86
2023-02-27T20:36:58.504Z,101096.71
2023-02-27T20:39:28.661Z,101097.94
2023-02-27T20:41:57.164Z,101100.19
2023-02-27T20:44:25.111Z,101099.16
2023-02-27T20:46:53.339Z,101104.95
2023-02-27T20:49:27.774Z,101110.04
2023-02-27T20:51:56.166Z,101106.41
2023-02-27T20:54:24.534Z,101115.93
2023-02-27T20:56:52.988Z,101115.58
2023-02-27T20:59:21.998Z,101122.73
2023-02-27T21:01:52.752Z,101130.03
2023-02-27T21:04:43.264Z,101136.95
2023-02-27T21:07:13.374Z,101132.43
2023-02-27T21:09:42.255Z,101141.60
2023-02-27T21:12:10.360Z,101144.02
2023-02-27T21:14:38.596Z,101145.38
2023-02-27T21:17:06.846Z,101156.23
2023-02-27T21:19:39.959Z,101156.86
2023-02-27T21:22:11.142Z,101161.76
2023-02-27T21:24:39.309Z,101163.43
2023-02-27T21:27:07.557Z,101166.39
2023-02-27T21:29:36.306Z,101162.71
2023-02-27T21:32:04.798Z,101167.95
2023-02-27T21:34:34.255Z,101171.02
2023-02-27T21:37:06.281Z,101170.77
2023-02-27T21:39:50.638Z,101175.51
2023-02-27T21:42:18.815Z,101176.38
2023-02-27T21:44:47.190Z,101184.03
2023-02-27T21:47:17.243Z,101184.44
2023-02-27T21:49:47.035Z,101187.02
2023-02-27T21:52:15.059Z,101189.61
2023-02-27T21:54:43.161Z,101185.33
2023-02-27T21:57:11.143Z,101188.04
2023-02-27T21:59:42.458Z,101186.54
2023-02-27T22:02:11.167Z,101183.39
2023-02-27T22:04:39.400Z,101180.70
2023-02-27T22:07:08.430Z,101178.30
2023-02-27T22:09:39.070Z,101179.84
2023-02-27T22:12:07.163Z,101182.05
2023-02-27T22:14:35.457Z,101183.60
2023-02-27T22:17:05.869Z,101186.98
2023-02-27T22:19:33.965Z,101190.88
2023-02-27T22:22:02.091Z,101192.39
2023-02-27T22:24:30.291Z,101190.64
2023-02-27T22:26:58.538Z,101188.25
2023-02-27T22:29:27.324Z,101186.94
2023-02-27T22:31:55.617Z,101185.80
2023-02-27T22:34:24.050Z,101187.11
2023-02-27T22:36:53.275Z,101181.52
2023-02-27T22:39:26.085Z,101177.20
2023-02-27T22:41:55.958Z,101172.20
2023-02-27T22:44:24.894Z,101165.58
2023-02-27T22:46:54.648Z,101167.17
2023-02-27T22:49:23.565Z,101168.44
2023-02-27T22:51:52.448Z,101169.65
2023-02-27T22:54:21.668Z,101166.81
2023-02-27T22:56:51.647Z,101168.48
2023-02-27T22:59:30.698Z,101164.60
2023-02-27T23:01:59.503Z,101167.48
2023-02-27T23:04:27.925Z,101170.52
2023-02-27T23:06:56.549Z,101175.14
2023-02-27T23:09:26.209Z,101178.73
2023-02-27T23:11:55.113Z,101183.40
2023-02-27T23:14:23.720Z,101183.79
2023-02-27T23:16:51.873Z,101186.41
2023-02-27T23:19:20.561Z,101192.30
2023-02-27T23:21:54.860Z,101202.17
2023-02-27T23:24:22.813Z,101200.40
2023-02-27T23:26:52.361Z,101202.23
2023-02-27T23:29:20.869Z,101203.68
2023-02-27T23:31:49.252Z,101200.55
2023-02-27T23:34:18.304Z,101200.16
2023-02-27T23:36:46.438Z,101205.52
2023-02-27T23:39:14.513Z,101207.74
2023-02-27T23:41:43.062Z,101207.16
2023-02-27T23:44:11.151Z,101206.14
2023-02-27T23:46:40.770Z,101209.71
2023-02-27T23:49:12.348Z,101212.30
2023-02-27T23:51:41.499Z,101210.98
2023-02-27T23:54:10.707Z,101212.95
2023-02-27T23:56:39.142Z,101212.80
2023-02-27T23:59:07.611Z,101212.15
